Time;durP1;ratioP1;P1;durP2;ratioP2;P2;SDS_P1;SDS_P2;PMS_P1;PMS_P2;Temp;Humidity;BMP_temperature;BMP_pressure;BME280_temperature;BME280_humidity;BME280_pressure;Samples;Min_cycle;Max_cycle;Signal;HPM_P1;HPM_P2
2022/04/15 00:00:10;;;;;;;7.10;5.63;;;13.60;99.90;;;;;;5030552;28;20166;-72
2022/04/15 00:02:36;;;;;;;10.87;5.80;;;13.60;99.90;;;;;;5030460;28;20805;-73
2022/04/15 00:05:29;;;;;;;8.07;6.10;;;13.60;99.90;;;;;;5031532;28;20451;-72
2022/04/15 00:07:49;;;;;;;9.93;6.40;;;13.60;99.90;;;;;;5011939;28;20759;-72
2022/04/15 00:10:15;;;;;;;7.47;6.20;;;13.60;99.90;;;;;;5038530;28;20421;-72
2022/04/15 00:12:40;;;;;;;8.90;5.90;;;13.60;99.90;;;;;;5030849;28;20619;-72
2022/04/15 00:15:06;;;;;;;7.80;5.93;;;13.70;99.90;;;;;;5029653;28;20287;-73
2022/04/15 00:17:33;;;;;;;9.97;6.23;;;13.60;99.90;;;;;;5030195;28;20531;-72
2022/04/15 00:19:58;;;;;;;11.23;6.77;;;13.60;99.90;;;;;;5030424;28;20162;-73
2022/04/15 00:22:24;;;;;;;9.90;6.77;;;13.50;99.90;;;;;;5027300;28;20452;-72
2022/04/15 00:24:49;;;;;;;11.80;6.77;;;13.50;99.90;;;;;;5030332;28;20178;-72
2022/04/15 00:27:15;;;;;;;9.47;6.10;;;13.40;99.90;;;;;;5029375;28;20206;-72
2022/04/15 00:29:41;;;;;;;8.67;6.17;;;13.40;99.90;;;;;;5029720;28;20166;-73
2022/04/15 00:32:06;;;;;;;10.30;6.47;;;13.30;99.90;;;;;;5028977;28;20722;-72
2022/04/15 00:34:32;;;;;;;7.70;6.47;;;13.20;99.90;;;;;;5037631;28;20675;-72
2022/04/15 00:36:58;;;;;;;12.40;6.87;;;13.10;99.90;;;;;;5030399;28;20659;-72
2022/04/15 00:39:23;;;;;;;6.23;4.93;;;13.00;99.90;;;;;;5029949;28;20679;-72
2022/04/15 00:41:49;;;;;;;8.57;5.80;;;12.90;99.90;;;;;;5028904;28;20174;-72
2022/04/15 00:44:14;;;;;;;9.70;5.80;;;12.90;99.90;;;;;;5011527;28;20641;-72
2022/04/15 00:46:40;;;;;;;9.43;6.10;;;12.90;99.90;;;;;;5029656;28;20229;-72
2022/04/15 00:49:05;;;;;;;8.20;5.40;;;12.90;99.90;;;;;;5029110;28;20177;-72
2022/04/15 00:51:34;;;;;;;6.87;5.57;;;12.90;99.90;;;;;;5028955;28;20301;-72
2022/04/15 00:54:02;;;;;;;7.20;5.80;;;12.80;99.90;;;;;;5029200;28;20271;-72
2022/04/15 00:56:31;;;;;;;13.47;6.03;;;12.70;99.90;;;;;;5028851;28;20436;-72
2022/04/15 00:58:59;;;;;;;7.53;5.70;;;12.70;99.90;;;;;;5009755;28;20402;-72
2022/04/15 01:01:26;;;;;;;7.70;5.63;;;12.60;99.90;;;;;;5015387;28;20428;-72
2022/04/15 01:03:54;;;;;;;12.20;7.17;;;12.50;99.90;;;;;;5032226;28;20455;-72
2022/04/15 01:06:22;;;;;;;11.50;6.93;;;12.40;99.90;;;;;;5034116;28;21016;-73
2022/04/15 01:08:49;;;;;;;9.57;6.83;;;12.40;99.90;;;;;;5029006;28;20424;-72
2022/04/15 01:11:19;;;;;;;9.50;6.50;;;12.30;99.90;;;;;;5026218;28;20512;-72
2022/04/15 01:13:46;;;;;;;9.40;7.10;;;12.30;99.90;;;;;;5028634;28;20602;-72
2022/04/15 01:16:12;;;;;;;12.30;6.63;;;12.20;99.90;;;;;;5010881;28;20882;-72
2022/04/15 01:18:38;;;;;;;15.30;7.23;;;12.10;99.90;;;;;;5029002;28;20524;-72
2022/04/15 01:21:04;;;;;;;11.07;6.60;;;12.00;99.90;;;;;;5028608;28;20170;-72
2022/04/15 01:23:30;;;;;;;11.27;6.70;;;12.00;99.90;;;;;;5029165;28;20408;-72
2022/04/15 01:25:56;;;;;;;9.67;6.90;;;12.00;99.90;;;;;;5015460;28;20281;-72
2022/04/15 01:28:21;;;;;;;9.40;6.70;;;12.00;99.90;;;;;;5029137;28;20186;-72
2022/04/15 01:30:47;;;;;;;10.33;6.20;;;12.00;99.90;;;;;;5028263;28;20177;-72
2022/04/15 01:33:13;;;;;;;8.30;6.00;;;12.00;99.90;;;;;;5028367;28;20265;-72
2022/04/15 01:35:39;;;;;;;9.00;6.17;;;12.00;99.90;;;;;;5036902;28;20598;-72
2022/04/15 01:38:07;;;;;;;7.50;5.83;;;12.00;99.90;;;;;;5028092;28;20202;-72
2022/04/15 01:40:33;;;;;;;7.20;6.23;;;12.10;99.90;;;;;;5028085;28;20600;-72
2022/04/15 01:42:58;;;;;;;9.47;5.80;;;11.90;99.90;;;;;;5026892;28;20512;-72
2022/04/15 01:45:24;;;;;;;8.33;6.40;;;11.80;99.90;;;;;;5027816;28;20632;-72
2022/04/15 01:47:50;;;;;;;6.77;6.03;;;11.70;99.90;;;;;;5014948;28;20166;-72
2022/04/15 01:50:16;;;;;;;8.03;6.47;;;11.60;99.90;;;;;;5028912;28;20170;-72
2022/04/15 01:52:41;;;;;;;7.63;5.90;;;11.70;99.90;;;;;;5027424;28;20428;-71
2022/04/15 01:55:07;;;;;;;6.83;5.77;;;11.60;99.90;;;;;;5028633;28;20194;-72
2022/04/15 01:57:33;;;;;;;10.23;6.40;;;11.70;99.90;;;;;;5027702;28;20553;-72
2022/04/15 01:59:58;;;;;;;6.67;5.90;;;11.60;99.90;;;;;;5027843;28;20400;-72
2022/04/15 02:02:24;;;;;;;6.97;5.93;;;11.60;99.90;;;;;;5027914;28;20170;-72
2022/04/15 02:04:50;;;;;;;6.17;5.50;;;11.50;99.90;;;;;;5028299;28;20177;-72
2022/04/15 02:07:15;;;;;;;7.17;5.70;;;11.50;99.90;;;;;;5028773;28;20194;-72
2022/04/15 02:09:41;;;;;;;9.60;5.77;;;11.50;99.90;;;;;;5027937;28;20205;-72
2022/04/15 02:12:07;;;;;;;10.40;5.50;;;11.40;99.90;;;;;;5027323;28;20624;-72
2022/04/15 02:14:32;;;;;;;7.60;5.37;;;11.40;99.90;;;;;;5027468;28;20205;-72
2022/04/15 02:16:58;;;;;;;10.20;5.73;;;11.40;99.90;;;;;;5028208;28;20197;-72
2022/04/15 02:19:24;;;;;;;7.50;5.87;;;11.30;99.90;;;;;;5027702;28;20173;-71
2022/04/15 02:21:50;;;;;;;8.50;5.97;;;11.30;99.90;;;;;;5027324;28;20246;-72
2022/04/15 02:24:15;;;;;;;10.37;6.23;;;11.20;99.90;;;;;;5027617;28;20259;-72
2022/04/15 02:26:41;;;;;;;7.63;6.07;;;11.20;99.90;;;;;;5025494;28;20210;-72
2022/04/15 02:29:07;;;;;;;6.97;6.10;;;11.20;99.90;;;;;;5026957;28;20513;-72
2022/04/15 02:31:33;;;;;;;12.37;6.37;;;11.20;99.90;;;;;;5026991;28;20428;-72
2022/04/15 02:33:58;;;;;;;9.50;6.23;;;11.20;99.90;;;;;;5023702;28;20188;-72
2022/04/15 02:36:24;;;;;;;6.93;6.20;;;11.10;99.90;;;;;;5034334;28;20193;-72
2022/04/15 02:38:50;;;;;;;7.37;6.27;;;11.10;99.90;;;;;;5036441;28;20181;-72
2022/04/15 02:41:15;;;;;;;6.70;5.90;;;11.10;99.90;;;;;;5027281;28;20177;-72
2022/04/15 02:43:41;;;;;;;8.20;6.07;;;11.20;99.90;;;;;;5027411;28;20726;-72
2022/04/15 02:46:08;;;;;;;8.80;6.60;;;11.10;99.90;;;;;;5027259;28;20209;-72
2022/04/15 02:48:34;;;;;;;7.40;5.70;;;11.10;99.90;;;;;;5027390;28;20523;-72
2022/04/15 02:51:01;;;;;;;6.97;6.27;;;11.10;99.90;;;;;;5027464;28;20818;-72
2022/04/15 02:53:27;;;;;;;11.40;5.57;;;11.10;99.90;;;;;;5027526;28;20760;-72
2022/04/15 02:55:53;;;;;;;10.50;6.17;;;11.00;99.90;;;;;;5027164;28;20555;-72
2022/04/15 02:58:21;;;;;;;13.90;6.23;;;10.90;99.90;;;;;;5027184;28;20499;-72
2022/04/15 03:00:47;;;;;;;10.40;5.93;;;11.00;99.90;;;;;;5027255;28;20547;-72
2022/04/15 03:03:13;;;;;;;7.80;5.97;;;11.00;99.90;;;;;;5009620;28;20420;-72
2022/04/15 03:05:39;;;;;;;8.97;6.00;;;11.00;99.90;;;;;;5036516;28;20220;-72
2022/04/15 03:08:05;;;;;;;7.53;6.00;;;11.00;99.90;;;;;;5026822;28;20618;-72
2022/04/15 03:10:31;;;;;;;7.60;5.80;;;10.90;99.90;;;;;;5025405;28;20182;-72
2022/04/15 03:12:56;;;;;;;8.27;6.10;;;10.90;99.90;;;;;;5026600;28;20532;-72
2022/04/15 03:15:22;;;;;;;7.70;6.17;;;10.80;99.90;;;;;;5027097;28;20591;-72
2022/04/15 03:17:47;;;;;;;6.27;5.60;;;10.70;99.90;;;;;;5026524;28;20190;-72
2022/04/15 03:20:13;;;;;;;8.93;5.90;;;10.60;99.90;;;;;;5027637;28;20248;-72
2022/04/15 03:22:41;;;;;;;7.47;5.70;;;10.60;99.90;;;;;;5026547;28;20170;-71
2022/04/15 03:25:09;;;;;;;10.87;5.90;;;10.50;99.90;;;;;;5028948;28;20765;-72
2022/04/15 03:27:35;;;;;;;8.27;6.57;;;10.50;99.90;;;;;;5030410;28;20525;-72
2022/04/15 03:30:01;;;;;;;6.47;5.50;;;10.50;99.90;;;;;;5030972;28;20913;-72
2022/04/15 03:32:27;;;;;;;10.73;7.00;;;10.50;99.90;;;;;;5031055;28;20289;-72
2022/04/15 03:34:53;;;;;;;11.50;6.27;;;10.40;99.90;;;;;;5039631;28;20554;-72
2022/04/15 03:37:19;;;;;;;11.57;6.50;;;10.30;99.90;;;;;;5015475;28;20206;-72
2022/04/15 03:39:45;;;;;;;8.40;5.80;;;10.30;99.90;;;;;;5030955;28;20475;-72
2022/04/15 03:42:10;;;;;;;12.53;6.10;;;10.20;99.90;;;;;;5030219;28;20178;-72
2022/04/15 03:44:36;;;;;;;9.20;6.07;;;10.20;99.90;;;;;;5030757;28;20170;-72
2022/04/15 03:47:05;;;;;;;11.13;6.87;;;10.20;99.90;;;;;;5030916;28;20206;-72
2022/04/15 03:49:31;;;;;;;11.23;6.80;;;10.10;99.90;;;;;;5030659;28;20531;-72
2022/04/15 03:51:57;;;;;;;8.40;6.80;;;10.10;99.90;;;;;;5030518;28;20448;-72
2022/04/15 03:54:23;;;;;;;10.90;7.00;;;10.10;99.90;;;;;;5030624;28;20470;-72
2022/04/15 03:56:48;;;;;;;12.30;6.80;;;10.10;99.90;;;;;;5030484;28;20218;-72
2022/04/15 03:59:14;;;;;;;11.60;6.80;;;10.10;99.90;;;;;;5030300;28;20586;-72
2022/04/15 04:01:40;;;;;;;8.73;6.73;;;10.00;99.90;;;;;;5030332;28;20208;-71
2022/04/15 04:04:06;;;;;;;6.97;6.00;;;10.00;99.90;;;;;;5017080;28;20165;-72
2022/04/15 04:06:31;;;;;;;9.30;6.80;;;10.00;99.90;;;;;;5039081;28;20726;-72
2022/04/15 04:08:57;;;;;;;10.33;6.40;;;9.90;99.90;;;;;;5030629;28;20236;-72
2022/04/15 04:11:23;;;;;;;11.63;6.57;;;9.80;99.90;;;;;;5029553;28;20221;-72
2022/04/15 04:13:48;;;;;;;8.20;6.23;;;9.80;99.90;;;;;;5030320;28;20280;-72
2022/04/15 04:16:14;;;;;;;6.90;5.60;;;9.80;99.90;;;;;;5028784;28;20201;-72
2022/04/15 04:18:40;;;;;;;7.80;6.30;;;9.80;99.90;;;;;;5029097;28;20170;-72
2022/04/15 04:21:06;;;;;;;9.63;6.00;;;9.80;99.90;;;;;;5029706;28;20224;-72
2022/04/15 04:23:32;;;;;;;7.70;5.60;;;9.80;99.90;;;;;;5012410;28;20511;-72
2022/04/15 04:25:58;;;;;;;9.20;5.80;;;9.80;99.90;;;;;;5029097;28;20641;-72
2022/04/15 04:28:23;;;;;;;8.17;5.80;;;9.70;99.90;;;;;;5030143;28;20206;-72
2022/04/15 04:30:49;;;;;;;7.23;5.97;;;9.70;99.90;;;;;;5029613;28;20724;-72
2022/04/15 04:33:14;;;;;;;8.60;6.10;;;9.60;99.90;;;;;;5026260;28;20573;-71
2022/04/15 04:35:40;;;;;;;8.87;6.17;;;9.50;99.90;;;;;;5011701;28;20262;-72
2022/04/15 04:38:06;;;;;;;8.00;6.30;;;9.50;99.90;;;;;;5033565;28;20261;-72
2022/04/15 04:40:35;;;;;;;11.33;6.17;;;9.50;99.90;;;;;;5029891;28;20224;-72
2022/04/15 04:43:03;;;;;;;11.97;6.00;;;9.50;99.90;;;;;;5029675;28;20420;-72
2022/04/15 04:45:29;;;;;;;8.60;5.73;;;9.50;99.90;;;;;;5029088;28;20782;-72
2022/04/15 04:47:56;;;;;;;9.33;6.10;;;9.50;99.90;;;;;;5011990;28;20420;-71
2022/04/15 04:50:21;;;;;;;9.40;5.73;;;9.50;99.90;;;;;;5029586;28;20417;-72
2022/04/15 04:52:48;;;;;;;8.60;5.77;;;9.50;99.90;;;;;;5028901;28;20571;-72
2022/04/15 04:55:15;;;;;;;9.83;6.20;;;9.50;99.90;;;;;;5011998;28;20198;-72
2022/04/15 04:57:42;;;;;;;10.83;6.17;;;9.60;99.90;;;;;;5028982;28;20441;-72
2022/04/15 05:00:13;;;;;;;8.70;6.20;;;9.70;99.90;;;;;;5029516;28;20404;-72
2022/04/15 05:02:39;;;;;;;7.03;6.33;;;9.70;99.90;;;;;;5029117;28;20420;-72
2022/04/15 05:05:05;;;;;;;9.30;6.50;;;9.70;99.90;;;;;;5037821;28;20496;-71
2022/04/15 05:07:31;;;;;;;7.30;5.93;;;9.80;99.90;;;;;;5032741;28;20225;-72
2022/04/15 05:09:57;;;;;;;11.40;6.30;;;9.90;99.90;;;;;;5027469;28;20464;-72
2022/04/15 05:12:23;;;;;;;9.60;6.43;;;10.00;99.90;;;;;;5026769;28;20284;-72
2022/04/15 05:14:49;;;;;;;10.80;6.80;;;10.10;99.90;;;;;;5011223;28;20633;-72
2022/04/15 05:17:15;;;;;;;8.87;6.70;;;10.10;99.90;;;;;;5029500;28;20280;-72
2022/04/15 05:19:41;;;;;;;7.60;6.00;;;10.20;99.90;;;;;;5029249;28;20569;-71
2022/04/15 05:22:08;;;;;;;8.23;6.67;;;10.20;99.90;;;;;;5028470;28;20189;-71
2022/04/15 05:24:34;;;;;;;8.83;6.57;;;10.30;99.90;;;;;;5010570;28;20612;-72
2022/04/15 05:26:59;;;;;;;7.93;6.10;;;10.50;99.90;;;;;;5028370;28;20523;-72
2022/04/15 05:29:25;;;;;;;7.97;6.23;;;10.60;99.90;;;;;;5028504;28;20178;-71
2022/04/15 05:31:50;;;;;;;6.80;6.10;;;10.70;99.90;;;;;;5028925;28;20220;-71
2022/04/15 05:34:16;;;;;;;11.60;6.50;;;10.90;99.90;;;;;;5030283;28;20276;-72
2022/04/15 05:36:41;;;;;;;8.57;6.10;;;10.90;99.90;;;;;;5035355;28;20437;-71
2022/04/15 05:39:07;;;;;;;8.33;6.30;;;11.10;99.90;;;;;;5028821;28;20231;-71
2022/04/15 05:41:33;;;;;;;8.90;6.03;;;11.10;99.90;;;;;;5027359;28;20178;-72
2022/04/15 05:43:58;;;;;;;14.20;6.90;;;11.10;99.90;;;;;;5028490;28;20182;-72
2022/04/15 05:46:27;;;;;;;7.90;6.93;;;11.20;99.90;;;;;;5028300;28;20185;-72
2022/04/15 05:48:52;;;;;;;10.10;6.80;;;11.20;99.90;;;;;;5027413;28;20170;-72
2022/04/15 05:51:19;;;;;;;8.77;6.07;;;11.30;99.90;;;;;;5027971;28;20400;-72
2022/04/15 05:53:45;;;;;;;10.40;6.60;;;11.40;99.90;;;;;;5028180;28;20184;-72
2022/04/15 05:56:10;;;;;;;8.47;6.20;;;11.60;99.90;;;;;;5028060;28;20491;-72
2022/04/15 05:58:36;;;;;;;8.20;6.10;;;11.80;99.90;;;;;;5028187;28;20185;-72
2022/04/15 06:01:02;;;;;;;9.93;7.07;;;11.90;99.90;;;;;;5019489;28;20617;-72
2022/04/15 06:03:32;;;;;;;8.30;6.90;;;12.10;99.90;;;;;;5028287;28;20177;-72
2022/04/15 06:05:58;;;;;;;8.40;7.33;;;12.30;99.90;;;;;;5020783;28;21011;-72
2022/04/15 06:08:23;;;;;;;10.33;8.10;;;12.50;99.90;;;;;;5048339;28;20430;-72
2022/04/15 06:10:49;;;;;;;9.23;8.20;;;12.70;99.90;;;;;;5042136;28;21173;-72
2022/04/15 06:13:19;;;;;;;12.67;10.47;;;12.90;99.90;;;;;;5027412;28;20212;-72
2022/04/15 06:15:53;;;;;;;13.00;10.20;;;13.20;99.90;;;;;;5009548;28;20210;-72
2022/04/15 06:18:19;;;;;;;11.63;10.23;;;13.30;99.90;;;;;;5009608;28;20420;-72
2022/04/15 06:20:46;;;;;;;12.13;10.10;;;13.40;99.90;;;;;;5011899;28;20419;-72
2022/04/15 06:23:12;;;;;;;13.23;9.80;;;13.60;99.90;;;;;;5027617;28;20428;-72
2022/04/15 06:25:38;;;;;;;15.27;10.77;;;13.70;99.90;;;;;;5027541;28;20424;-72
2022/04/15 06:28:04;;;;;;;13.20;9.57;;;13.80;99.90;;;;;;5028186;28;20484;-72
2022/04/15 06:30:30;;;;;;;12.73;10.67;;;14.00;99.90;;;;;;5027343;28;20166;-72
2022/04/15 06:32:55;;;;;;;13.33;9.33;;;14.10;99.90;;;;;;5011841;28;20486;-72
2022/04/15 06:35:21;;;;;;;11.63;10.30;;;14.30;99.90;;;;;;5008417;28;20300;-72
2022/04/15 06:37:46;;;;;;;12.17;9.70;;;14.40;99.90;;;;;;5027498;28;20208;-72
2022/04/15 06:40:12;;;;;;;13.47;9.60;;;14.70;99.90;;;;;;5027373;28;20599;-72
2022/04/15 06:42:37;;;;;;;12.40;10.20;;;14.80;99.90;;;;;;5027104;28;20259;-72
2022/04/15 06:45:04;;;;;;;13.47;9.77;;;15.00;99.90;;;;;;5027101;28;20188;-71
2022/04/15 06:47:29;;;;;;;11.80;9.30;;;15.10;99.90;;;;;;5026829;28;20256;-72
2022/04/15 06:49:55;;;;;;;11.77;10.50;;;15.20;99.90;;;;;;5027489;28;20408;-72
2022/04/15 06:52:21;;;;;;;13.97;10.40;;;15.40;99.90;;;;;;5026784;28;20212;-72
2022/04/15 06:54:47;;;;;;;14.00;10.70;;;15.60;99.90;;;;;;5027483;28;20415;-72
2022/04/15 06:57:13;;;;;;;16.23;11.27;;;15.80;99.90;;;;;;5008393;28;20714;-72
2022/04/15 06:59:40;;;;;;;14.57;11.60;;;15.90;99.90;;;;;;5026954;28;20499;-72
2022/04/15 07:02:06;;;;;;;15.80;12.50;;;16.00;99.90;;;;;;5008774;28;20209;-72
2022/04/15 07:04:32;;;;;;;13.30;11.82;;;16.10;99.90;;;;;;5028358;28;20461;-74
2022/04/15 07:06:58;;;;;;;15.93;12.80;;;16.20;99.90;;;;;;5020180;28;20262;-74
2022/04/15 07:09:24;;;;;;;16.60;12.60;;;16.30;99.90;;;;;;5011846;28;20557;-74
2022/04/15 07:11:50;;;;;;;18.53;14.90;;;16.50;99.90;;;;;;5005340;28;20205;-73
2022/04/15 07:14:16;;;;;;;17.97;13.77;;;16.70;99.90;;;;;;5027946;28;20472;-74
2022/04/15 07:16:41;;;;;;;19.37;15.00;;;17.00;99.90;;;;;;5030363;28;20194;-73
2022/04/15 07:19:07;;;;;;;19.10;15.73;;;17.30;99.90;;;;;;5041055;28;20451;-73
2022/04/15 07:21:37;;;;;;;17.70;15.73;;;17.40;99.90;;;;;;5025917;28;20174;-73
2022/04/15 07:24:03;;;;;;;22.73;18.00;;;17.70;99.90;;;;;;5024509;28;20521;-73
2022/04/15 07:26:30;;;;;;;21.20;18.33;;;17.90;99.90;;;;;;5029227;28;20432;-73
2022/04/15 07:28:56;;;;;;;22.60;17.80;;;17.90;99.90;;;;;;5028585;28;20479;-75
2022/04/15 07:31:21;;;;;;;20.40;16.83;;;17.90;99.90;;;;;;5029358;28;20396;-73
2022/04/15 07:33:47;;;;;;;25.20;20.50;;;18.10;99.90;;;;;;5012432;28;20281;-74
2022/04/15 07:36:42;;;;;;;25.00;20.40;;;18.50;99.90;;;;;;5019577;28;20214;-73
2022/04/15 07:39:09;;;;;;;25.73;20.43;;;19.20;99.90;;;;;;5030458;28;20693;-74
2022/04/15 07:41:36;;;;;;;25.60;21.30;;;20.40;99.90;;;;;;5029512;28;20460;-74
2022/04/15 07:44:06;;;;;;;27.53;23.47;;;21.40;99.90;;;;;;5028867;28;20470;-75
2022/04/15 07:46:32;;;;;;;28.97;22.40;;;22.30;99.90;;;;;;5028455;28;20439;-75
2022/04/15 07:48:58;;;;;;;25.00;21.83;;;23.10;99.90;;;;;;5029727;28;20419;-74
2022/04/15 07:51:24;;;;;;;26.77;23.07;;;23.80;96.10;;;;;;5027517;28;20546;-75
2022/04/15 07:53:49;;;;;;;29.30;22.73;;;24.40;94.20;;;;;;5026745;28;20518;-75
2022/04/15 07:56:15;;;;;;;26.60;23.70;;;24.60;87.60;;;;;;5026343;28;20711;-75
2022/04/15 07:58:41;;;;;;;26.63;22.70;;;24.20;88.40;;;;;;5026981;28;20235;-74
2022/04/15 08:01:07;;;;;;;28.57;23.23;;;24.10;91.00;;;;;;5025898;28;20313;-73
2022/04/15 08:03:32;;;;;;;25.67;22.00;;;24.40;86.30;;;;;;5026174;28;20497;-73
2022/04/15 08:05:58;;;;;;;25.80;21.67;;;25.10;83.60;;;;;;5037901;28;20495;-73
2022/04/15 08:08:24;;;;;;;24.33;21.47;;;25.60;78.40;;;;;;5026160;28;20547;-73
2022/04/15 08:10:51;;;;;;;24.33;20.90;;;25.90;73.50;;;;;;5025802;28;20180;-73
2022/04/15 08:13:17;;;;;;;22.10;19.70;;;26.10;71.90;;;;;;5039573;28;20267;-73
2022/04/15 08:15:42;;;;;;;23.87;20.43;;;26.80;66.20;;;;;;5032077;28;20217;-72
2022/04/15 08:18:08;;;;;;;23.43;19.83;;;27.40;56.90;;;;;;5029794;28;20231;-73
2022/04/15 08:20:33;;;;;;;23.00;20.25;;;27.80;52.40;;;;;;5029992;28;20200;-73
2022/04/15 08:22:59;;;;;;;23.10;18.48;;;28.40;52.80;;;;;;5030003;28;20505;-73
2022/04/15 08:25:24;;;;;;;20.85;18.70;;;28.80;53.10;;;;;;5030192;28;20173;-74
2022/04/15 08:27:50;;;;;;;20.17;17.65;;;28.60;52.90;;;;;;5029734;28;20256;-73
2022/04/15 08:30:16;;;;;;;21.75;18.52;;;28.70;52.90;;;;;;5029266;28;20273;-74
2022/04/15 08:32:41;;;;;;;17.52;15.82;;;29.00;53.20;;;;;;5026298;28;20194;-74
2022/04/15 08:35:13;;;;;;;21.30;17.40;;;29.20;52.90;;;;;;5029418;28;20201;-73
2022/04/15 08:37:39;;;;;;;21.15;15.57;;;29.20;51.40;;;;;;5029708;28;20208;-74
2022/04/15 08:40:05;;;;;;;16.15;14.55;;;29.20;52.20;;;;;;5029431;28;20624;-73
2022/04/15 08:42:32;;;;;;;15.50;13.93;;;29.50;47.00;;;;;;5036872;28;20212;-73
2022/04/15 08:44:57;;;;;;;19.55;14.18;;;30.10;42.40;;;;;;5031135;28;20232;-73
2022/04/15 08:47:24;;;;;;;16.75;15.02;;;30.00;39.30;;;;;;5011618;28;20663;-73
2022/04/15 08:49:50;;;;;;;21.30;15.40;;;29.60;40.50;;;;;;5029542;28;20251;-73
2022/04/15 08:52:17;;;;;;;16.83;14.77;;;29.50;39.40;;;;;;5028907;28;20684;-74
2022/04/15 08:54:44;;;;;;;17.52;14.50;;;29.30;40.00;;;;;;5029115;28;20204;-73
2022/04/15 08:57:10;;;;;;;14.88;13.38;;;29.30;37.10;;;;;;5029421;28;20236;-73
2022/04/15 08:59:36;;;;;;;16.13;14.43;;;29.60;37.10;;;;;;5028974;28;20216;-73
2022/04/15 09:02:01;;;;;;;16.15;14.23;;;29.90;32.80;;;;;;5029389;28;20580;-73
2022/04/15 09:04:27;;;;;;;17.27;15.48;;;29.70;37.50;;;;;;5028837;28;20623;-73
2022/04/15 09:06:56;;;;;;;15.73;14.10;;;30.10;32.30;;;;;;5029127;28;20636;-73
2022/04/15 09:09:29;;;;;;;15.73;14.02;;;30.60;30.80;;;;;;5028993;28;20270;-73
2022/04/15 09:11:56;;;;;;;17.15;14.90;;;31.10;27.20;;;;;;5030240;28;20539;-73
2022/04/15 09:14:22;;;;;;;17.65;15.48;;;30.30;29.40;;;;;;5040097;28;20554;-73
2022/04/15 09:16:48;;;;;;;17.65;14.90;;;29.50;30.70;;;;;;5036750;28;20204;-73
2022/04/15 09:19:15;;;;;;;17.05;15.10;;;29.20;35.20;;;;;;5028605;28;20181;-73
2022/04/15 09:21:44;;;;;;;18.35;16.27;;;29.90;31.30;;;;;;5025430;28;20182;-73
2022/04/15 09:24:11;;;;;;;18.33;16.30;;;30.70;26.10;;;;;;5028032;28;20300;-73
2022/04/15 09:26:38;;;;;;;16.90;15.20;;;31.50;23.30;;;;;;5028391;28;20220;-73
2022/04/15 09:29:03;;;;;;;16.60;14.90;;;31.90;23.00;;;;;;4997730;28;20324;-73
2022/04/15 09:31:29;;;;;;;15.10;13.23;;;32.60;18.50;;;;;;5009043;28;20253;-74
2022/04/15 09:34:00;;;;;;;15.90;14.30;;;32.80;16.40;;;;;;5017579;28;20185;-74
2022/04/15 09:36:28;;;;;;;14.23;12.80;;;32.70;14.80;;;;;;5010353;28;20216;-74
2022/04/15 09:39:04;;;;;;;13.57;11.68;;;32.60;14.80;;;;;;5009968;28;20559;-73
2022/04/15 09:41:30;;;;;;;14.15;12.27;;;33.00;13.80;;;;;;5028202;28;20488;-73
2022/04/15 09:44:00;;;;;;;12.85;11.48;;;33.20;9.30;;;;;;5033656;28;20184;-74
2022/04/15 09:46:27;;;;;;;12.73;11.43;;;33.40;9.70;;;;;;5027488;28;20325;-74
2022/04/15 09:49:10;;;;;;;13.00;11.18;;;33.50;7.50;;;;;;5010478;28;20201;-74
2022/04/15 09:51:47;;;;;;;13.77;12.38;;;34.10;4.60;;;;;;5027535;28;20260;-74
2022/04/15 09:54:27;;;;;;;12.32;10.65;;;33.90;3.80;;;;;;5028748;28;20299;-74
2022/04/15 09:56:55;;;;;;;12.02;10.73;;;34.30;3.60;;;;;;5027440;28;20208;-73
2022/04/15 09:59:23;;;;;;;13.45;10.65;;;34.70;1.00;;;;;;5021420;28;20178;-73
2022/04/15 10:01:57;;;;;;;13.30;11.90;;;34.70;1.00;;;;;;5025676;28;20218;-73
2022/04/15 10:04:26;;;;;;;13.20;11.88;;;34.90;1.00;;;;;;5028033;28;20242;-73
2022/04/15 10:06:52;;;;;;;14.02;10.90;;;34.90;1.00;;;;;;5028133;28;20629;-73
2022/04/15 10:09:19;;;;;;;12.55;11.23;;;34.80;1.00;;;;;;5010159;28;20226;-73
2022/04/15 10:11:46;;;;;;;12.38;10.93;;;35.20;1.00;;;;;;5028363;28;20278;-73
2022/04/15 10:14:13;;;;;;;11.88;10.00;;;35.40;1.00;;;;;;5029010;28;20185;-73
2022/04/15 10:16:40;;;;;;;11.13;10.02;;;35.20;1.00;;;;;;5028347;28;20185;-73
2022/04/15 10:19:06;;;;;;;11.10;9.80;;;35.10;1.00;;;;;;5027910;28;20173;-73
2022/04/15 10:21:34;;;;;;;10.18;9.18;;;35.40;1.00;;;;;;5027551;28;20639;-74
2022/04/15 10:24:01;;;;;;;12.73;9.02;;;35.70;1.00;;;;;;5027379;28;20177;-73
2022/04/15 10:26:32;;;;;;;9.80;8.80;;;35.50;1.00;;;;;;5027295;28;20229;-74
2022/04/15 10:29:03;;;;;;;11.48;8.35;;;35.70;1.00;;;;;;5028107;28;20205;-74
2022/04/15 10:31:43;;;;;;;10.10;8.27;;;36.10;1.00;;;;;;5027398;28;20173;-73
2022/04/15 10:34:10;;;;;;;11.70;8.43;;;36.40;1.00;;;;;;5027077;28;20235;-75
2022/04/15 10:36:36;;;;;;;10.10;8.27;;;36.00;1.00;;;;;;5028185;28;20189;-73
2022/04/15 10:39:06;;;;;;;10.30;8.27;;;35.70;1.00;;;;;;5027364;28;20181;-74
2022/04/15 10:41:53;;;;;;;11.45;8.80;;;35.60;1.00;;;;;;5026993;28;20200;-74
2022/04/15 10:44:30;;;;;;;10.77;8.70;;;35.90;1.00;;;;;;5030788;28;20176;-73
2022/04/15 10:47:10;;;;;;;8.80;7.85;;;36.70;1.00;;;;;;5031504;28;20254;-73
2022/04/15 10:49:39;;;;;;;8.60;7.15;;;37.80;1.00;;;;;;5026294;28;20256;-73
2022/04/15 10:52:21;;;;;;;12.55;8.10;;;38.30;1.00;;;;;;5026892;28;20176;-73
2022/04/15 10:54:51;;;;;;;8.25;7.15;;;38.70;1.00;;;;;;5026651;28;20204;-73
2022/04/15 10:57:18;;;;;;;8.40;6.95;;;38.20;1.00;;;;;;5026947;28;20648;-73
2022/04/15 11:02:41;;;;;;;7.95;6.82;;;38.30;1.00;;;;;;5027217;28;20177;-73
2022/04/15 11:05:08;;;;;;;10.15;6.85;;;38.00;1.00;;;;;;5027254;28;20183;-73
2022/04/15 11:07:57;;;;;;;8.38;6.22;;;38.10;1.00;;;;;;5026946;28;20197;-73
2022/04/15 11:10:44;;;;;;;6.43;5.82;;;37.80;1.00;;;;;;5012516;28;20178;-73
2022/04/15 11:13:29;;;;;;;6.57;5.63;;;38.10;1.00;;;;;;5031496;28;20586;-73
2022/04/15 11:15:59;;;;;;;9.45;7.18;;;38.70;1.00;;;;;;5036325;28;20318;-73
2022/04/15 11:18:55;;;;;;;8.02;7.20;;;38.00;1.00;;;;;;5026694;28;20181;-73
2022/04/15 11:21:32;;;;;;;8.38;7.47;;;37.60;1.00;;;;;;5023535;28;20197;-73
2022/04/15 11:24:00;;;;;;;9.05;8.00;;;37.90;1.00;;;;;;5008847;28;20181;-73
2022/04/15 11:26:27;;;;;;;9.82;7.40;;;37.30;1.00;;;;;;5026429;28;20595;-73
2022/04/15 11:28:54;;;;;;;8.90;6.35;;;37.70;1.00;;;;;;5026600;28;20185;-73
2022/04/15 11:31:30;;;;;;;8.30;7.07;;;37.30;1.00;;;;;;5026499;28;20628;-73
2022/04/15 11:34:07;;;;;;;7.05;5.57;;;35.80;1.00;;;;;;5026703;28;20185;-73
2022/04/15 11:36:35;;;;;;;8.18;5.85;;;35.30;1.00;;;;;;5025672;28;20196;-73
2022/04/15 11:39:04;;;;;;;5.57;4.75;;;36.10;1.00;;;;;;5026686;28;20196;-73
2022/04/15 11:41:29;;;;;;;5.85;4.50;;;36.50;1.00;;;;;;5026661;28;20278;-73
2022/04/15 11:44:04;;;;;;;6.00;4.50;;;36.40;1.00;;;;;;5024333;28;20271;-73
2022/04/15 11:46:36;;;;;;;5.97;4.00;;;36.40;1.00;;;;;;5028559;28;20203;-73
2022/04/15 11:49:03;;;;;;;5.82;4.38;;;36.10;1.00;;;;;;5010303;28;20253;-73
2022/04/15 11:51:29;;;;;;;5.90;3.80;;;36.90;1.00;;;;;;5041928;28;20520;-73
2022/04/15 11:53:57;;;;;;;5.82;3.80;;;37.80;1.00;;;;;;5037514;28;20264;-73
2022/04/15 11:56:27;;;;;;;4.68;3.40;;;37.60;1.00;;;;;;5030030;28;20320;-73
2022/04/15 11:58:53;;;;;;;3.67;3.10;;;37.00;1.00;;;;;;5030307;28;20182;-73
2022/04/15 12:01:26;;;;;;;4.03;3.15;;;36.80;1.00;;;;;;5029911;28;20176;-73
2022/04/15 12:03:52;;;;;;;5.05;3.10;;;36.20;1.00;;;;;;5029794;28;20204;-73
2022/04/15 12:06:17;;;;;;;4.35;3.15;;;34.90;1.00;;;;;;5030106;28;20876;-73
2022/04/15 12:08:43;;;;;;;4.93;2.97;;;34.20;1.00;;;;;;5029891;28;20250;-73
2022/04/15 12:11:09;;;;;;;4.20;2.70;;;34.10;1.00;;;;;;5029863;28;20173;-73
2022/04/15 12:13:34;;;;;;;3.85;2.67;;;32.60;1.00;;;;;;5029862;28;20177;-73
2022/04/15 12:16:00;;;;;;;3.28;2.78;;;33.10;1.00;;;;;;5029577;28;20216;-73
2022/04/15 12:18:26;;;;;;;5.13;2.47;;;35.20;1.00;;;;;;5030383;28;20230;-73
2022/04/15 12:20:52;;;;;;;3.28;2.00;;;36.60;1.00;;;;;;5029666;28;20648;-73
2022/04/15 12:23:17;;;;;;;3.65;1.98;;;37.60;1.00;;;;;;5012078;28;20211;-74
2022/04/15 12:26:09;;;;;;;3.40;1.80;;;38.20;1.00;;;;;;5030027;28;20224;-73
2022/04/15 12:31:28;;;;;;;2.80;1.55;;;38.80;1.00;;;;;;5024071;28;20191;-73
2022/04/15 12:33:53;;;;;;;2.30;1.70;;;39.70;1.00;;;;;;5017988;28;20550;-73
2022/04/15 12:36:20;;;;;;;2.80;1.50;;;40.30;1.00;;;;;;5026366;28;20291;-73
2022/04/15 12:38:59;;;;;;;3.22;1.83;;;40.20;1.00;;;;;;5020782;28;20181;-73
2022/04/15 12:41:39;;;;;;;4.90;1.60;;;40.60;1.00;;;;;;5038015;28;20168;-73
2022/04/15 12:44:14;;;;;;;2.97;1.50;;;40.60;1.00;;;;;;5029478;28;20250;-74
2022/04/15 12:46:43;;;;;;;3.70;1.83;;;40.40;1.00;;;;;;5011647;28;20651;-73
2022/04/15 12:49:22;;;;;;;2.33;1.58;;;40.20;1.00;;;;;;5029413;28;20547;-73